Time;durP1;ratioP1;P1;durP2;ratioP2;P2;SDS_P1;SDS_P2;PMS_P1;PMS_P2;Temp;Humidity;BMP_temperature;BMP_pressure;BME280_temperature;BME280_humidity;BME280_pressure;Samples;Min_cycle;Max_cycle;Signal;HPM_P1;HPM_P2
2022/03/10 00:00:46;;;;;;;41.80;24.52;;;3.40;99.90;;;;;;5072146;28;20046;-78
2022/03/10 00:04:39;;;;;;;46.85;26.73;;;3.40;99.90;;;;;;5103522;27;20482;-79
2022/03/10 00:07:28;;;;;;;;;;;;;;;;;;;;;
2022/03/10 00:10:48;;;;;;;;;;;;;;;;;;;;;
2022/03/10 00:13:16;;;;;;;48.10;26.17;;;3.10;99.90;;;;;;5015437;28;20061;-78
2022/03/10 00:33:15;;;;;;;39.00;23.73;;;3.10;99.90;;;;;;4849312;29;20168;-78
2022/03/10 00:47:11;;;;;;;37.55;23.15;;;2.90;99.90;;;;;;4747950;30;20036;-79
2022/03/10 00:59:56;;;;;;;40.95;23.13;;;2.90;99.90;;;;;;4806598;29;20426;-78
2022/03/10 01:02:47;;;;;;;41.00;22.35;;;2.80;99.90;;;;;;4828851;29;20544;-78
2022/03/10 01:05:56;;;;;;;42.53;22.38;;;2.80;99.90;;;;;;4830645;29;20129;-78
2022/03/10 01:08:22;;;;;;;41.33;22.40;;;2.80;99.90;;;;;;4841054;29;20724;-78
2022/03/10 01:21:10;;;;;;;;;;;;;;;;;;;;;
2022/03/10 01:23:42;;;;;;;37.28;24.02;;;2.70;99.90;;;;;;4975104;28;20089;-78
2022/03/10 02:21:29;;;;;;;25.50;16.23;;;2.80;99.90;;;;;;4958295;28;20062;-78
2022/03/10 03:06:37;;;;;;;22.92;14.32;;;2.70;99.90;;;;;;4590549;31;20078;-78
2022/03/10 03:09:52;;;;;;;19.60;13.10;;;2.70;99.90;;;;;;4629358;30;20069;-78
2022/03/10 03:39:55;;;;;;;20.23;12.95;;;2.50;99.90;;;;;;4979446;28;20392;-77
2022/03/10 03:42:21;;;;;;;19.98;12.75;;;2.40;99.90;;;;;;4982496;28;20041;-77
2022/03/10 03:48:18;;;;;;;21.23;12.32;;;2.40;99.90;;;;;;5073847;28;20040;-77
2022/03/10 03:58:33;;;;;;;20.60;11.70;;;2.40;99.90;;;;;;4963078;28;20037;-77
2022/03/10 04:15:45;;;;;;;19.13;11.52;;;2.50;99.90;;;;;;4901481;29;20051;-77
2022/03/10 04:39:13;;;;;;;18.33;11.40;;;2.90;99.90;;;;;;4779491;29;20046;-78
2022/03/10 04:45:29;;;;;;;;;;;;;;;;;;;;;
2022/03/10 04:48:43;;;;;;;16.25;10.35;;;3.00;99.90;;;;;;4832603;29;20036;-78
2022/03/10 04:58:33;;;;;;;18.15;10.15;;;3.10;99.90;;;;;;4855205;28;20035;-78
2022/03/10 05:04:34;;;;;;;21.50;10.48;;;3.20;99.90;;;;;;4944192;28;20081;-77
2022/03/10 05:25:23;;;;;;;19.55;10.02;;;2.90;99.90;;;;;;4789222;29;20034;-78
2022/03/10 05:27:52;;;;;;;17.55;10.65;;;3.00;99.90;;;;;;4777704;29;20102;-78
2022/03/10 05:30:30;;;;;;;16.45;10.30;;;3.00;99.90;;;;;;4885289;28;20094;-78
2022/03/10 05:33:11;;;;;;;15.82;10.15;;;3.00;99.90;;;;;;5057773;28;20038;-78
2022/03/10 05:35:51;;;;;;;18.98;11.45;;;3.10;99.90;;;;;;5059971;28;20032;-77
2022/03/10 05:39:02;;;;;;;17.15;10.52;;;3.10;99.90;;;;;;5058534;28;20554;-77
2022/03/10 05:41:54;;;;;;;17.90;10.52;;;3.00;99.90;;;;;;5085462;28;20024;-78
2022/03/10 05:44:57;;;;;;;17.17;11.53;;;3.00;99.90;;;;;;5068260;28;20086;-77
2022/03/10 05:48:39;;;;;;;19.38;10.93;;;3.00;99.90;;;;;;5086385;28;20062;-78
2022/03/10 05:51:05;;;;;;;17.33;10.38;;;3.00;99.90;;;;;;5067906;28;20040;-78
2022/03/10 05:54:15;;;;;;;15.68;9.32;;;3.00;99.90;;;;;;5078904;28;20112;-78
2022/03/10 06:00:14;;;;;;;16.08;10.27;;;3.00;99.90;;;;;;4999561;28;20105;-78
2022/03/10 06:02:49;;;;;;;16.95;9.98;;;3.00;99.90;;;;;;5005259;28;20424;-78
2022/03/10 06:05:53;;;;;;;16.80;10.65;;;3.00;99.90;;;;;;5065293;28;20040;-78
2022/03/10 06:08:22;;;;;;;14.85;10.80;;;3.10;99.90;;;;;;4988749;28;20065;-78
2022/03/10 06:10:57;;;;;;;21.05;11.05;;;3.20;99.90;;;;;;5063885;28;20070;-78
2022/03/10 06:13:36;;;;;;;17.13;10.38;;;3.30;99.90;;;;;;5079323;28;20016;-78
2022/03/10 06:16:11;;;;;;;18.75;11.45;;;3.30;99.90;;;;;;5083785;28;20050;-78
2022/03/10 06:18:52;;;;;;;20.67;10.73;;;3.40;99.90;;;;;;5076453;28;20055;-79
2022/03/10 06:21:33;;;;;;;15.93;10.75;;;3.50;99.90;;;;;;5083230;28;20024;-78
2022/03/10 06:23:59;;;;;;;17.67;11.43;;;3.60;99.90;;;;;;5063384;28;20024;-79
2022/03/10 06:26:31;;;;;;;16.60;10.95;;;3.60;99.90;;;;;;5082470;28;20028;-79
2022/03/10 06:29:44;;;;;;;22.38;10.65;;;3.70;99.90;;;;;;5087782;28;20117;-78
2022/03/10 06:32:14;;;;;;;17.17;9.90;;;3.80;99.90;;;;;;5086570;28;20031;-78
2022/03/10 06:40:55;;;;;;;18.95;10.05;;;4.40;99.90;;;;;;5094222;28;20543;-78
2022/03/10 06:43:21;;;;;;;29.95;9.18;;;4.60;99.90;;;;;;5105317;28;20023;-79
2022/03/10 06:45:49;;;;;;;13.50;8.80;;;4.70;99.90;;;;;;5088380;28;20474;-78
2022/03/10 06:48:15;;;;;;;16.05;9.65;;;4.80;99.90;;;;;;5106198;28;20039;-80
2022/03/10 06:50:54;;;;;;;17.65;9.80;;;5.00;99.90;;;;;;5100595;28;20106;-81
2022/03/10 06:53:24;;;;;;;23.13;14.18;;;5.10;99.90;;;;;;5086913;28;20030;-83
2022/03/10 06:55:52;;;;;;;20.52;11.05;;;5.20;99.90;;;;;;5088511;28;20034;-81
2022/03/10 06:58:44;;;;;;;18.90;10.05;;;5.40;99.90;;;;;;5084589;28;20054;-81
2022/03/10 07:01:10;;;;;;;18.55;9.80;;;5.50;99.90;;;;;;5099793;28;20063;-83
2022/03/10 07:03:47;;;;;;;21.33;9.63;;;5.60;99.90;;;;;;5107097;28;20027;-79
2022/03/10 07:06:48;;;;;;;15.70;8.73;;;5.70;99.90;;;;;;5107399;28;20016;-80
2022/03/10 07:09:33;;;;;;;16.65;8.90;;;5.80;99.90;;;;;;5090678;28;20063;-80
2022/03/10 07:12:30;;;;;;;12.77;8.77;;;5.90;99.90;;;;;;5102044;28;20478;-80
2022/03/10 07:15:28;;;;;;;14.65;8.90;;;6.00;99.90;;;;;;5100244;28;20031;-80
2022/03/10 07:18:05;;;;;;;17.52;9.32;;;6.30;99.90;;;;;;5080993;28;20433;-80
2022/03/10 07:20:31;;;;;;;16.27;11.00;;;6.50;99.90;;;;;;5106901;28;20032;-80
2022/03/10 07:22:58;;;;;;;29.60;13.75;;;6.60;99.90;;;;;;5101338;28;20024;-80
2022/03/10 07:25:33;;;;;;;24.40;13.55;;;6.60;99.90;;;;;;5089341;28;20509;-80
2022/03/10 07:28:02;;;;;;;27.45;13.13;;;6.70;99.90;;;;;;5075935;28;20048;-80
2022/03/10 07:30:30;;;;;;;22.35;12.98;;;6.70;99.90;;;;;;5086901;28;20032;-81
2022/03/10 07:32:59;;;;;;;19.45;11.73;;;6.80;99.90;;;;;;5078249;28;20114;-80
2022/03/10 07:35:28;;;;;;;19.50;12.52;;;6.80;99.90;;;;;;5070921;28;20093;-79
2022/03/10 07:37:59;;;;;;;20.50;12.35;;;6.90;99.90;;;;;;5083206;28;20051;-77
2022/03/10 07:40:26;;;;;;;24.95;14.05;;;7.00;99.90;;;;;;5070748;28;20528;-78
2022/03/10 07:42:52;;;;;;;27.85;14.75;;;7.10;99.90;;;;;;5082853;28;20050;-78
2022/03/10 07:45:24;;;;;;;33.40;17.45;;;7.20;99.60;;;;;;5061618;28;20498;-83
2022/03/10 07:47:53;;;;;;;36.78;17.50;;;7.30;99.00;;;;;;5080821;28;20467;-77
2022/03/10 07:50:23;;;;;;;31.40;18.15;;;7.30;99.50;;;;;;5083977;28;20123;-77
2022/03/10 07:53:24;;;;;;;37.47;19.60;;;7.40;99.50;;;;;;5083796;28;20103;-77
2022/03/10 07:55:54;;;;;;;37.20;20.35;;;7.50;99.20;;;;;;5073149;28;20029;-77
2022/03/10 07:58:25;;;;;;;32.33;20.27;;;7.70;98.90;;;;;;5080622;28;20595;-77
2022/03/10 08:01:36;;;;;;;41.65;21.33;;;7.80;99.80;;;;;;5077229;28;20036;-77
2022/03/10 08:04:25;;;;;;;41.05;22.38;;;7.80;99.30;;;;;;5073634;28;20047;-77
2022/03/10 08:06:51;;;;;;;41.42;24.60;;;7.90;99.40;;;;;;5022656;28;20028;-77
2022/03/10 08:09:17;;;;;;;39.38;23.33;;;8.00;99.90;;;;;;5075168;28;20021;-77
2022/03/10 08:11:57;;;;;;;46.00;23.80;;;8.10;99.90;;;;;;5063111;28;20382;-77
2022/03/10 08:14:34;;;;;;;38.28;24.15;;;8.20;99.90;;;;;;5084308;28;20043;-77
2022/03/10 08:17:04;;;;;;;41.03;23.75;;;8.30;99.90;;;;;;5080993;28;20016;-77
2022/03/10 08:19:38;;;;;;;41.78;25.42;;;8.30;99.90;;;;;;5084286;28;20036;-77
2022/03/10 08:22:08;;;;;;;40.20;23.75;;;8.30;99.90;;;;;;5081559;28;20044;-77
2022/03/10 08:24:34;;;;;;;44.33;23.80;;;8.30;99.90;;;;;;5078903;28;20103;-77
2022/03/10 08:27:17;;;;;;;40.42;24.98;;;8.30;99.90;;;;;;5081635;28;20024;-77
2022/03/10 08:29:46;;;;;;;;;;;8.20;99.90;;;;;;5079051;28;20033;-77
2022/03/10 08:32:13;;;;;;;43.30;25.08;;;8.30;99.90;;;;;;5081480;28;19998;-77
2022/03/10 08:34:39;;;;;;;60.25;33.83;;;8.40;99.90;;;;;;5084684;28;20064;-77
2022/03/10 08:37:05;;;;;;;51.42;25.70;;;8.50;99.90;;;;;;5081069;28;20029;-77
2022/03/10 08:39:31;;;;;;;49.88;26.58;;;8.60;99.90;;;;;;5083504;28;20027;-77
2022/03/10 08:41:57;;;;;;;61.50;36.33;;;8.60;99.90;;;;;;5086615;28;20031;-77
2022/03/10 08:44:24;;;;;;;46.72;27.80;;;8.70;99.90;;;;;;5071017;28;20051;-77
2022/03/10 08:46:57;;;;;;;40.45;26.92;;;8.80;99.90;;;;;;5082750;28;20394;-77
2022/03/10 08:49:49;;;;;;;46.30;27.33;;;8.80;99.90;;;;;;5077609;28;20024;-77
2022/03/10 08:52:43;;;;;;;39.27;25.93;;;8.80;99.90;;;;;;5070840;28;20039;-77
2022/03/10 08:55:12;;;;;;;46.45;24.55;;;8.90;99.90;;;;;;5082913;28;20047;-77
2022/03/10 08:57:39;;;;;;;38.17;24.88;;;8.90;99.90;;;;;;5078299;28;20043;-77
2022/03/10 09:00:11;;;;;;;36.20;24.13;;;8.90;99.90;;;;;;5084472;28;20031;-77
2022/03/10 09:02:42;;;;;;;44.28;23.42;;;8.90;99.90;;;;;;5082926;28;20012;-77
2022/03/10 09:05:36;;;;;;;35.55;21.83;;;8.90;99.90;;;;;;5061643;28;20032;-77
2022/03/10 09:11:29;;;;;;;34.22;21.00;;;9.10;99.90;;;;;;4987592;28;20550;-77
2022/03/10 09:13:55;;;;;;;28.50;20.35;;;9.10;99.90;;;;;;4989155;28;20117;-78
2022/03/10 09:16:38;;;;;;;38.03;21.58;;;9.20;99.90;;;;;;5058495;28;20058;-77
2022/03/10 09:19:10;;;;;;;39.45;23.60;;;9.40;99.90;;;;;;5082435;28;20097;-77
2022/03/10 09:21:36;;;;;;;46.15;24.63;;;9.40;99.90;;;;;;5085104;28;20055;-77
2022/03/10 09:24:17;;;;;;;36.30;22.42;;;9.50;99.90;;;;;;5084668;28;20075;-78
2022/03/10 09:26:43;;;;;;;38.00;22.73;;;9.60;99.90;;;;;;5081111;28;20119;-78
2022/03/10 09:29:22;;;;;;;40.28;23.90;;;9.60;99.90;;;;;;5082025;28;20051;-77
2022/03/10 09:32:06;;;;;;;39.78;23.83;;;9.60;99.90;;;;;;5077081;28;20450;-77
2022/03/10 09:34:36;;;;;;;36.65;23.48;;;9.60;99.90;;;;;;5075401;28;20088;-78
2022/03/10 09:37:02;;;;;;;37.63;23.85;;;9.70;99.90;;;;;;5062549;28;20065;-77
2022/03/10 09:39:43;;;;;;;39.38;24.60;;;9.80;99.90;;;;;;5075956;28;20024;-78
2022/03/10 09:42:09;;;;;;;53.53;26.80;;;9.80;99.90;;;;;;5076377;28;20017;-77
2022/03/10 09:44:47;;;;;;;42.75;26.23;;;9.90;99.90;;;;;;5059330;28;20487;-78
2022/03/10 09:47:44;;;;;;;45.05;26.98;;;9.90;99.90;;;;;;5059083;28;20025;-78
2022/03/10 09:50:13;;;;;;;53.00;28.40;;;10.00;99.90;;;;;;5064704;28;20032;-77
2022/03/10 09:52:41;;;;;;;47.85;27.33;;;10.10;99.90;;;;;;5070110;28;20031;-77
2022/03/10 09:55:08;;;;;;;44.28;26.98;;;10.10;99.90;;;;;;5083909;28;20161;-77
2022/03/10 09:57:38;;;;;;;50.22;25.25;;;10.10;99.90;;;;;;5078072;28;20069;-77
2022/03/10 10:00:05;;;;;;;39.20;25.98;;;10.10;99.50;;;;;;5065517;28;20125;-77
2022/03/10 10:02:31;;;;;;;35.95;21.92;;;10.10;98.70;;;;;;5060698;28;20016;-77
2022/03/10 10:04:57;;;;;;;42.65;22.48;;;10.20;99.90;;;;;;5059443;28;20028;-77
2022/03/10 10:07:58;;;;;;;36.22;23.42;;;10.20;98.50;;;;;;5079056;28;20031;-77
2022/03/10 10:10:45;;;;;;;40.55;22.80;;;10.10;97.70;;;;;;5054418;28;20030;-77
2022/03/10 10:13:30;;;;;;;40.00;21.80;;;10.10;96.80;;;;;;5066848;28;20032;-77
2022/03/10 10:16:00;;;;;;;39.38;20.27;;;10.30;95.00;;;;;;5080860;28;20090;-77
2022/03/10 10:18:46;;;;;;;36.72;20.83;;;10.40;95.00;;;;;;5085317;28;20056;-77
2022/03/10 10:22:33;;;;;;;;;;;;;;;;;;;;;
2022/03/10 10:25:05;;;;;;;28.95;20.83;;;10.50;99.70;;;;;;5036854;28;20032;-77
2022/03/10 10:27:32;;;;;;;37.85;22.40;;;10.50;99.90;;;;;;5067568;28;20048;-77
2022/03/10 10:30:13;;;;;;;35.25;22.60;;;10.60;99.30;;;;;;5067045;28;20028;-77
2022/03/10 10:32:56;;;;;;;34.55;20.45;;;10.60;97.20;;;;;;5073370;28;20111;-77
2022/03/10 10:35:27;;;;;;;36.13;21.52;;;10.50;98.20;;;;;;5086384;28;20029;-77
2022/03/10 10:37:56;;;;;;;36.05;20.13;;;10.60;97.10;;;;;;5065681;28;20137;-77
2022/03/10 10:40:27;;;;;;;31.23;19.83;;;10.50;96.70;;;;;;5068366;28;20063;-77
2022/03/10 10:43:07;;;;;;;27.40;18.25;;;10.40;96.80;;;;;;5083604;28;20025;-77
2022/03/10 10:45:35;;;;;;;35.67;20.77;;;10.30;96.90;;;;;;5072991;28;20028;-77
2022/03/10 10:48:12;;;;;;;33.00;20.08;;;10.20;97.10;;;;;;5066989;28;20055;-77
2022/03/10 10:50:41;;;;;;;29.35;20.63;;;10.20;98.70;;;;;;5061981;28;20055;-77
2022/03/10 10:53:12;;;;;;;30.85;20.75;;;10.30;98.80;;;;;;5081115;28;20027;-77
2022/03/10 10:55:45;;;;;;;30.40;20.88;;;10.30;99.20;;;;;;5069441;28;20066;-77
2022/03/10 10:58:17;;;;;;;32.03;21.88;;;10.30;98.90;;;;;;5082571;28;20051;-77
2022/03/10 11:00:47;;;;;;;31.65;21.65;;;10.20;99.90;;;;;;5068505;28;20105;-77
2022/03/10 11:03:45;;;;;;;33.47;22.67;;;10.20;99.90;;;;;;5082305;28;20056;-77
2022/03/10 11:06:25;;;;;;;35.25;25.05;;;10.20;99.90;;;;;;5086522;28;20110;-77
2022/03/10 11:08:57;;;;;;;44.03;26.15;;;10.30;99.90;;;;;;5079519;28;20039;-77
2022/03/10 11:12:09;;;;;;;46.83;28.33;;;10.40;99.90;;;;;;5085662;28;20028;-77
2022/03/10 11:14:33;;;;;;;44.70;26.92;;;10.40;99.90;;;;;;5076306;28;20035;-77
2022/03/10 11:17:18;;;;;;;42.25;25.85;;;10.50;99.90;;;;;;5082015;28;20024;-77
2022/03/10 11:20:00;;;;;;;42.80;26.38;;;10.40;99.90;;;;;;5059956;28;20104;-77
2022/03/10 11:22:53;;;;;;;57.35;31.92;;;10.50;99.90;;;;;;5081601;28;20390;-77
2022/03/10 11:25:46;;;;;;;52.28;30.95;;;10.60;99.00;;;;;;5084848;28;20068;-77
2022/03/10 11:28:15;;;;;;;;;;;10.90;99.90;;;;;;5073560;28;20048;-78
2022/03/10 11:30:58;;;;;;;60.35;33.30;;;10.90;99.90;;;;;;5106224;28;19911;-77
2022/03/10 11:33:32;;;;;;;46.88;27.70;;;10.80;98.50;;;;;;5101878;28;20031;-77
2022/03/10 11:36:03;;;;;;;46.28;27.50;;;10.80;99.90;;;;;;5102903;28;20051;-78
2022/03/10 11:38:56;;;;;;;54.55;30.35;;;11.00;99.90;;;;;;5083528;28;20425;-77
2022/03/10 11:41:29;;;;;;;;;;;10.90;99.90;;;;;;5082484;28;20024;-77
2022/03/10 11:43:58;;;;;;;;;;;11.00;99.50;;;;;;5089213;28;19918;-77
2022/03/10 11:46:28;;;;;;;49.22;29.77;;;11.10;99.90;;;;;;5082810;28;19912;-78
2022/03/10 11:49:15;;;;;;;61.92;32.83;;;11.20;99.90;;;;;;5083461;28;20425;-77
2022/03/10 11:52:55;;;;;;;54.20;30.33;;;11.20;99.80;;;;;;5083939;28;20027;-77
2022/03/10 11:55:29;;;;;;;52.97;32.35;;;11.20;99.90;;;;;;5069932;28;20138;-77
2022/03/10 11:57:55;;;;;;;58.55;31.77;;;11.30;99.90;;;;;;5075887;28;20112;-78
2022/03/10 12:00:44;;;;;;;52.42;32.75;;;11.30;99.90;;;;;;5105108;28;20107;-77
2022/03/10 12:03:28;;;;;;;64.13;37.38;;;11.10;99.90;;;;;;5099876;28;20078;-78
2022/03/10 12:06:37;;;;;;;64.85;35.63;;;11.10;99.90;;;;;;5102081;28;20024;-77
2022/03/10 12:09:06;;;;;;;67.00;39.25;;;10.90;99.90;;;;;;5032818;28;20387;-77
2022/03/10 12:11:48;;;;;;;68.45;37.97;;;11.00;99.90;;;;;;5024588;28;20056;-77
2022/03/10 12:14:31;;;;;;;67.93;41.58;;;11.00;99.90;;;;;;5077611;28;20042;-78
2022/03/10 12:17:42;;;;;;;66.65;39.10;;;11.00;99.90;;;;;;5102775;28;20491;-77
2022/03/10 12:20:18;;;;;;;69.85;40.17;;;10.90;99.90;;;;;;5072666;28;20036;-78
2022/03/10 12:23:13;;;;;;;78.22;44.97;;;10.80;99.90;;;;;;5092118;28;20145;-78
2022/03/10 12:26:02;;;;;;;76.60;45.28;;;11.40;99.90;;;;;;5092597;28;20024;-77
2022/03/10 12:28:34;;;;;;;73.10;47.65;;;14.70;97.40;;;;;;5088086;28;20049;-77
2022/03/10 12:31:11;;;;;;;88.47;50.90;;;16.30;95.00;;;;;;5084976;28;20020;-77
2022/03/10 12:37:25;;;;;;;80.80;50.67;;;17.10;93.70;;;;;;4996681;28;20074;-77
2022/03/10 12:39:51;;;;;;;96.20;58.25;;;17.50;92.10;;;;;;5061295;28;20120;-78
2022/03/10 12:42:16;;;;;;;99.07;56.75;;;17.90;86.70;;;;;;5081216;28;20032;-77
2022/03/10 12:44:44;;;;;;;76.93;52.38;;;17.70;87.20;;;;;;5083251;28;20090;-78
2022/03/10 12:47:12;;;;;;;78.32;51.50;;;18.30;88.80;;;;;;5063355;28;20024;-78
2022/03/10 12:49:45;;;;;;;83.63;50.08;;;18.90;85.00;;;;;;5075771;28;20035;-78
2022/03/10 12:52:14;;;;;;;80.22;50.00;;;19.40;84.60;;;;;;5062157;28;20398;-77
2022/03/10 12:54:42;;;;;;;77.50;49.22;;;19.40;79.30;;;;;;5076073;28;20070;-78
2022/03/10 12:57:08;;;;;;;77.03;48.30;;;19.80;78.30;;;;;;5077009;28;20021;-78
2022/03/10 12:59:44;;;;;;;66.68;46.55;;;19.90;76.50;;;;;;5069069;28;20028;-78
2022/03/10 13:02:26;;;;;;;72.43;46.08;;;20.30;74.00;;;;;;5077381;28;20074;-78
2022/03/10 13:07:56;;;;;;;67.45;44.95;;;20.80;69.00;;;;;;5060687;28;20027;-78
2022/03/10 13:10:22;;;;;;;71.85;45.30;;;21.30;66.90;;;;;;5059427;28;20036;-78
2022/03/10 13:12:52;;;;;;;71.82;44.97;;;22.40;66.50;;;;;;5080385;28;20020;-78
2022/03/10 13:15:24;;;;;;;65.65;44.63;;;23.00;62.90;;;;;;5065704;28;20039;-78
2022/03/10 13:17:51;;;;;;;66.80;43.38;;;23.60;62.50;;;;;;5064829;28;20020;-78
2022/03/10 13:20:27;;;;;;;65.38;45.35;;;23.80;58.60;;;;;;5060333;28;20067;-78
2022/03/10 13:23:03;;;;;;;74.40;46.55;;;23.70;59.30;;;;;;5062811;28;20016;-78
2022/03/10 13:25:37;;;;;;;66.88;44.60;;;23.90;58.40;;;;;;5069268;28;20032;-78
2022/03/10 13:28:06;;;;;;;61.63;41.90;;;23.80;56.90;;;;;;5061283;28;20095;-78
2022/03/10 13:30:36;;;;;;;58.15;41.10;;;23.80;55.70;;;;;;5083628;28;20028;-78
2022/03/10 13:33:05;;;;;;;60.08;42.20;;;23.50;54.70;;;;;;5082043;28;20020;-78
2022/03/10 13:35:59;;;;;;;60.72;42.70;;;23.30;58.00;;;;;;5077105;28;20517;-78
2022/03/10 13:38:27;;;;;;;62.25;42.03;;;22.70;59.60;;;;;;5067549;28;20029;-77
2022/03/10 13:41:06;;;;;;;59.60;42.55;;;21.80;63.90;;;;;;5077374;28;20036;-77
2022/03/10 13:43:35;;;;;;;56.60;39.63;;;21.90;62.20;;;;;;5062787;28;20021;-77
2022/03/10 13:46:17;;;;;;;53.83;38.67;;;22.30;59.80;;;;;;5077331;28;20158;-77
2022/03/10 13:48:53;;;;;;;;;;;22.70;56.70;;;;;;5071553;28;20027;-78
2022/03/10 13:51:21;;;;;;;60.42;40.28;;;22.50;58.80;;;;;;5059377;28;20379;-77
2022/03/10 13:54:00;;;;;;;61.72;41.08;;;21.90;60.50;;;;;;5062222;28;20550;-78
2022/03/10 13:56:43;;;;;;;58.58;39.20;;;23.30;58.20;;;;;;5083278;28;20437;-78
2022/03/10 13:59:10;;;;;;;64.22;40.80;;;23.70;56.30;;;;;;5076993;28;20055;-77
2022/03/10 14:01:45;;;;;;;64.55;40.95;;;23.60;54.00;;;;;;5078980;28;20033;-78
2022/03/10 14:04:15;;;;;;;63.47;40.13;;;22.80;54.20;;;;;;5077444;28;20040;-78
2022/03/10 14:06:46;;;;;;;56.05;39.15;;;23.20;54.30;;;;;;5078502;28;20017;-78
2022/03/10 14:09:20;;;;;;;57.10;40.20;;;23.90;52.50;;;;;;5058449;28;20025;-78
2022/03/10 14:11:47;;;;;;;58.65;39.70;;;24.70;49.90;;;;;;5081360;28;20012;-78
2022/03/10 14:14:14;;;;;;;58.75;40.42;;;25.10;48.90;;;;;;5057276;28;20070;-78
2022/03/10 14:16:53;;;;;;;69.57;41.60;;;25.10;48.60;;;;;;5056643;28;20028;-78
2022/03/10 14:19:29;;;;;;;60.95;40.92;;;25.30;47.00;;;;;;5076741;28;20058;-77
2022/03/10 14:21:57;;;;;;;66.18;43.60;;;24.90;45.60;;;;;;5078350;28;20161;-78
2022/03/10 14:24:57;;;;;;;69.40;42.00;;;24.60;46.50;;;;;;5082445;28;20024;-78
2022/03/10 14:27:23;;;;;;;67.32;42.03;;;24.20;46.10;;;;;;5077307;28;20371;-78
2022/03/10 14:30:27;;;;;;;74.65;44.78;;;23.40;48.00;;;;;;5078253;28;20031;-77
2022/03/10 14:33:13;;;;;;;66.38;42.55;;;23.50;46.30;;;;;;5071263;28;20387;-78
2022/03/10 14:35:39;;;;;;;71.43;45.35;;;24.20;46.50;;;;;;5070507;28;20106;-78
2022/03/10 14:38:16;;;;;;;74.47;47.85;;;24.60;46.00;;;;;;5080187;28;20433;-78
2022/03/10 14:40:46;;;;;;;71.68;47.45;;;23.80;45.60;;;;;;5076549;28;20024;-78
2022/03/10 14:43:14;;;;;;;74.38;46.85;;;23.40;45.80;;;;;;5077042;28;20033;-78
2022/03/10 14:45:40;;;;;;;80.45;48.55;;;22.70;46.50;;;;;;5081292;28;20077;-77
2022/03/10 14:48:09;;;;;;;77.95;47.72;;;22.60;46.50;;;;;;5058703;28;20020;-77
2022/03/10 14:50:35;;;;;;;65.90;47.08;;;22.70;45.60;;;;;;5082724;28;20032;-78
2022/03/10 14:53:02;;;;;;;79.63;48.42;;;23.20;45.30;;;;;;5066100;28;20024;-77
2022/03/10 14:55:33;;;;;;;80.72;48.28;;;23.60;42.80;;;;;;5082208;28;20562;-78
2022/03/10 14:57:59;;;;;;;78.45;47.38;;;23.30;44.50;;;;;;5080550;28;20115;-78
2022/03/10 15:00:31;;;;;;;74.30;48.88;;;23.20;43.90;;;;;;5086070;28;20033;-78
2022/03/10 15:02:58;;;;;;;75.00;49.55;;;22.80;43.70;;;;;;5082580;28;20029;-78
2022/03/10 15:05:24;;;;;;;75.22;46.92;;;22.70;44.00;;;;;;5070062;28;20064;-78
2022/03/10 15:07:53;;;;;;;78.90;51.00;;;22.30;45.20;;;;;;5083795;28;20044;-78
2022/03/10 15:10:28;;;;;;;86.18;53.17;;;21.80;44.90;;;;;;5085807;28;20032;-78
2022/03/10 15:12:54;;;;;;;79.82;51.40;;;21.40;45.60;;;;;;5082973;28;20020;-78
2022/03/10 15:15:28;;;;;;;84.93;50.75;;;21.70;45.60;;;;;;5068537;28;20495;-77
2022/03/10 15:18:23;;;;;;;73.55;46.75;;;21.40;45.20;;;;;;5082673;28;20070;-78
2022/03/10 15:20:51;;;;;;;81.20;48.45;;;21.30;46.10;;;;;;5060693;28;20494;-77
2022/03/10 15:23:24;;;;;;;75.72;49.38;;;21.40;45.20;;;;;;5065420;28;20034;-78
2022/03/10 15:26:12;;;;;;;79.57;48.53;;;21.50;45.10;;;;;;5085577;28;20066;-78
2022/03/10 15:28:41;;;;;;;73.18;47.05;;;21.70;44.70;;;;;;5094663;28;20048;-78
2022/03/10 15:31:08;;;;;;;75.80;48.95;;;20.90;45.60;;;;;;5106605;28;20036;-78
2022/03/10 15:33:43;;;;;;;70.57;44.10;;;20.60;45.60;;;;;;5100366;28;20483;-78
2022/03/10 15:36:13;;;;;;;76.57;42.78;;;20.00;45.90;;;;;;5099737;28;20040;-77
2022/03/10 15:38:46;;;;;;;68.22;44.55;;;19.30;46.10;;;;;;5103831;28;20019;-77
2022/03/10 15:41:12;;;;;;;;;;;18.50;47.10;;;;;;5100237;28;20032;-77
2022/03/10 15:43:40;;;;;;;62.35;38.13;;;18.10;47.00;;;;;;5103897;28;19910;-78
2022/03/10 15:46:06;;;;;;;59.53;36.63;;;18.00;45.50;;;;;;5105660;28;20035;-77
2022/03/10 15:48:36;;;;;;;53.70;34.10;;;17.50;45.90;;;;;;5100083;28;20028;-77
2022/03/10 15:51:02;;;;;;;68.82;38.03;;;17.20;46.50;;;;;;5099501;28;20020;-77
2022/03/10 15:53:34;;;;;;;53.13;36.33;;;17.20;47.10;;;;;;5103739;28;20076;-77
2022/03/10 15:56:06;;;;;;;58.92;37.60;;;17.20;47.40;;;;;;5099359;28;20488;-77
2022/03/10 15:58:44;;;;;;;56.92;36.47;;;17.20;48.30;;;;;;5103492;28;20031;-77
2022/03/10 16:01:10;;;;;;;65.63;37.50;;;17.30;48.40;;;;;;5099224;28;20039;-77
2022/03/10 16:03:54;;;;;;;62.40;36.95;;;17.30;47.70;;;;;;5103585;28;20020;-77
2022/03/10 16:06:23;;;;;;;64.63;37.67;;;17.20;46.60;;;;;;5099046;28;20040;-77
2022/03/10 16:09:20;;;;;;;;;;;;;;;;;;;;;
2022/03/10 16:11:47;;;;;;;58.00;35.80;;;16.50;47.40;;;;;;5103421;28;20478;-77
2022/03/10 16:14:12;;;;;;;65.57;38.25;;;16.10;48.40;;;;;;5098974;28;20115;-77
2022/03/10 16:16:39;;;;;;;60.78;37.67;;;15.50;49.60;;;;;;5105127;28;20106;-77
2022/03/10 16:19:11;;;;;;;71.65;43.50;;;14.50;52.40;;;;;;5098098;28;20042;-76
2022/03/10 16:21:37;;;;;;;80.78;46.95;;;14.00;54.70;;;;;;5100681;28;20139;-77
2022/03/10 16:24:07;;;;;;;73.82;44.88;;;14.10;56.00;;;;;;5100169;28;20036;-77
2022/03/10 16:26:33;;;;;;;69.07;43.88;;;14.20;57.90;;;;;;5107268;28;20248;-77
2022/03/10 16:28:59;;;;;;;74.63;44.70;;;14.30;57.60;;;;;;5099065;28;20056;-77
2022/03/10 16:31:25;;;;;;;78.80;47.08;;;14.20;55.50;;;;;;5099694;28;21119;-77
2022/03/10 16:33:54;;;;;;;74.78;43.35;;;13.90;56.90;;;;;;5087822;28;20046;-77
2022/03/10 16:36:21;;;;;;;75.35;43.53;;;13.50;57.70;;;;;;5081151;28;20032;-77
2022/03/10 16:38:47;;;;;;;67.38;39.95;;;13.10;59.40;;;;;;5087981;28;20042;-77
2022/03/10 16:41:23;;;;;;;74.40;40.92;;;12.70;59.10;;;;;;5081762;28;20035;-78
2022/03/10 16:43:56;;;;;;;69.25;40.40;;;12.20;60.00;;;;;;5075310;28;20020;-80
2022/03/10 16:46:27;;;;;;;62.78;39.58;;;11.90;61.60;;;;;;5082339;28;20051;-81
2022/03/10 16:49:14;;;;;;;69.32;40.75;;;11.60;63.00;;;;;;5087903;28;20442;-78
2022/03/10 16:51:43;;;;;;;69.07;40.97;;;11.50;64.30;;;;;;5090049;28;20494;-80
2022/03/10 16:54:12;;;;;;;67.13;39.53;;;11.30;63.90;;;;;;5103689;28;20026;-81
2022/03/10 16:56:40;;;;;;;66.95;40.95;;;11.10;64.80;;;;;;5103734;28;20042;-81
2022/03/10 16:59:08;;;;;;;72.15;41.60;;;10.90;65.00;;;;;;5102918;28;20133;-81
2022/03/10 17:01:38;;;;;;;67.43;39.78;;;10.90;64.70;;;;;;5078994;28;20514;-81
2022/03/10 17:04:05;;;;;;;57.47;38.30;;;10.80;65.00;;;;;;5079632;28;20020;-81
2022/03/10 17:06:34;;;;;;;66.45;38.50;;;10.70;64.70;;;;;;5098004;28;20070;-81
2022/03/10 17:09:05;;;;;;;78.78;44.20;;;10.70;64.60;;;;;;5097066;28;20020;-81
2022/03/10 17:11:47;;;;;;;69.40;41.90;;;10.60;64.00;;;;;;5080503;28;20028;-80
2022/03/10 17:14:12;;;;;;;66.00;40.10;;;10.60;64.50;;;;;;5071041;28;20378;-78
2022/03/10 17:16:49;;;;;;;69.40;39.10;;;10.50;64.10;;;;;;5094720;28;20106;-78
2022/03/10 17:19:15;;;;;;;64.70;38.78;;;10.40;63.90;;;;;;5085571;28;20012;-78
2022/03/10 17:21:41;;;;;;;74.10;40.28;;;10.20;64.70;;;;;;5082090;28;20031;-80
2022/03/10 17:24:09;;;;;;;70.80;41.15;;;10.20;65.20;;;;;;5103397;28;20470;-80
2022/03/10 17:26:44;;;;;;;76.25;41.38;;;10.10;65.90;;;;;;5103018;28;20023;-79
2022/03/10 17:29:10;;;;;;;70.65;41.30;;;10.00;66.90;;;;;;5084665;28;20143;-80
2022/03/10 17:31:39;;;;;;;71.70;40.03;;;9.90;67.30;;;;;;5081803;28;20027;-80
2022/03/10 17:34:07;;;;;;;75.45;41.75;;;9.80;68.10;;;;;;5086983;28;20121;-78
2022/03/10 17:36:37;;;;;;;70.32;40.20;;;9.70;67.70;;;;;;5080572;28;20371;-79
2022/03/10 17:39:23;;;;;;;83.05;42.90;;;9.60;69.30;;;;;;5104893;28;20020;-80
2022/03/10 17:42:03;;;;;;;76.80;42.08;;;9.50;70.10;;;;;;5101595;28;20036;-79
2022/03/10 17:44:31;;;;;;;76.28;42.58;;;9.30;70.50;;;;;;5084137;28;20062;-78
2022/03/10 17:47:00;;;;;;;79.53;42.42;;;9.20;71.90;;;;;;5082420;28;20024;-78
2022/03/10 17:49:28;;;;;;;87.78;44.80;;;9.10;73.40;;;;;;5080095;28;20031;-77
2022/03/10 17:52:08;;;;;;;105.00;49.55;;;8.90;73.40;;;;;;5100731;28;20028;-78
2022/03/10 17:55:11;;;;;;;92.93;47.20;;;8.80;72.40;;;;;;5097501;28;20056;-79
2022/03/10 17:57:43;;;;;;;78.03;46.92;;;8.70;71.70;;;;;;5101400;28;20017;-80
2022/03/10 18:00:33;;;;;;;96.20;51.95;;;8.60;71.10;;;;;;5077860;28;20588;-80